Time;durP1;ratioP1;P1;durP2;ratioP2;P2;SDS_P1;SDS_P2;PMS_P1;PMS_P2;Temp;Humidity;BMP_temperature;BMP_pressure;BME280_temperature;BME280_humidity;BME280_pressure;Samples;Min_cycle;Max_cycle;Signal;HPM_P1;HPM_P2
2022/06/10 00:00:59;;;;;;;31.08;17.50;;;;;;;;;;4747658;30;20044;-58
2022/06/10 00:03:27;;;;;;;12.25;8.82;;;;;;;;;;4733952;30;20513;-60
2022/06/10 00:05:58;;;;;;;8.60;5.07;;;;;;;;;;4734187;30;20051;-60
2022/06/10 00:08:29;;;;;;;6.63;4.47;;;;;;;;;;4733809;30;20052;-60
2022/06/10 00:10:57;;;;;;;6.03;4.50;;;;;;;;;;4734127;30;20502;-60
2022/06/10 00:13:27;;;;;;;6.70;4.90;;;;;;;;;;4734107;30;20779;-60
2022/06/10 00:15:55;;;;;;;5.45;4.88;;;;;;;;;;4733994;30;20055;-61
2022/06/10 00:18:25;;;;;;;6.88;5.13;;;;;;;;;;4734080;30;20087;-60
2022/06/10 00:20:52;;;;;;;7.05;4.93;;;;;;;;;;4734218;30;20055;-64
2022/06/10 00:23:20;;;;;;;6.43;5.65;;;;;;;;;;4747401;30;20587;-59
2022/06/10 00:25:48;;;;;;;5.28;4.78;;;;;;;;;;4734210;30;20049;-60
2022/06/10 00:28:15;;;;;;;7.28;5.35;;;;;;;;;;4747050;30;20506;-60
2022/06/10 00:30:43;;;;;;;7.03;5.50;;;;;;;;;;4734238;30;20049;-60
2022/06/10 00:33:10;;;;;;;6.88;5.00;;;;;;;;;;4734247;30;20045;-60
2022/06/10 00:35:40;;;;;;;7.45;5.28;;;;;;;;;;4733922;30;20044;-59
2022/06/10 00:38:07;;;;;;;8.27;5.45;;;;;;;;;;4734005;30;20506;-60
2022/06/10 00:40:39;;;;;;;8.95;5.80;;;;;;;;;;4733783;30;20071;-60
2022/06/10 00:43:15;;;;;;;8.05;4.80;;;;;;;;;;4733889;30;20127;-60
2022/06/10 00:46:01;;;;;;;6.47;5.40;;;;;;;;;;4734146;30;20049;-60
2022/06/10 00:49:02;;;;;;;9.32;6.53;;;;;;;;;;4733760;30;20114;-60
2022/06/10 00:51:38;;;;;;;5.90;4.82;;;;;;;;;;4733933;30;20060;-60
2022/06/10 00:54:18;;;;;;;7.43;4.75;;;;;;;;;;4733738;30;20048;-60
2022/06/10 00:56:54;;;;;;;4.97;4.43;;;;;;;;;;4733589;30;20053;-60
2022/06/10 00:59:25;;;;;;;9.23;7.15;;;;;;;;;;4733503;30;20053;-60
2022/06/10 01:01:58;;;;;;;6.35;5.55;;;;;;;;;;4733527;30;20051;-60
2022/06/10 01:04:28;;;;;;;8.30;6.07;;;;;;;;;;4746720;30;20523;-60
2022/06/10 01:06:55;;;;;;;8.88;5.65;;;;;;;;;;4733340;30;20052;-60
2022/06/10 01:09:24;;;;;;;7.45;6.72;;;;;;;;;;4733395;30;20056;-60
2022/06/10 01:11:51;;;;;;;8.00;6.22;;;;;;;;;;4733585;30;20115;-60
2022/06/10 01:14:41;;;;;;;9.18;7.03;;;;;;;;;;4733421;30;20063;-60
2022/06/10 01:17:20;;;;;;;6.85;5.65;;;;;;;;;;4733546;30;20052;-60
2022/06/10 01:20:31;;;;;;;6.90;6.15;;;;;;;;;;4733662;30;20053;-59
2022/06/10 01:23:33;;;;;;;7.88;5.75;;;;;;;;;;4733323;30;20559;-60
2022/06/10 01:26:28;;;;;;;8.07;6.40;;;;;;;;;;4717194;30;20063;-60
2022/06/10 01:29:17;;;;;;;7.25;6.10;;;;;;;;;;4733334;30;20052;-60
2022/06/10 01:31:51;;;;;;;6.93;5.43;;;;;;;;;;4733348;30;20040;-60
2022/06/10 01:34:41;;;;;;;7.75;5.20;;;;;;;;;;4733404;30;20383;-60
2022/06/10 01:37:55;;;;;;;6.60;5.53;;;;;;;;;;4733415;30;20131;-60
2022/06/10 01:41:09;;;;;;;8.40;5.88;;;;;;;;;;4716975;30;20135;-60
2022/06/10 01:43:37;;;;;;;6.87;5.93;;;;;;;;;;4715636;30;20057;-60
2022/06/10 01:46:26;;;;;;;8.05;5.43;;;;;;;;;;4734104;30;20060;-60
2022/06/10 01:48:57;;;;;;;9.20;6.30;;;;;;;;;;4736461;30;20076;-59
2022/06/10 01:51:45;;;;;;;6.15;5.43;;;;;;;;;;4736395;30;20055;-60
2022/06/10 01:54:40;;;;;;;7.10;5.65;;;;;;;;;;4736612;30;20044;-62
2022/06/10 01:57:13;;;;;;;6.97;5.82;;;;;;;;;;4736433;30;20052;-60
2022/06/10 01:59:51;;;;;;;9.15;6.18;;;;;;;;;;4736385;30;20059;-60
2022/06/10 02:02:23;;;;;;;7.25;5.55;;;;;;;;;;4736065;30;20048;-61
2022/06/10 02:04:59;;;;;;;41.55;23.52;;;;;;;;;;4736158;30;20156;-58
2022/06/10 02:07:38;;;;;;;7.65;6.60;;;;;;;;;;4735808;30;20541;-60
2022/06/10 02:10:32;;;;;;;6.00;4.90;;;;;;;;;;4736181;30;20048;-61
2022/06/10 02:13:06;;;;;;;7.90;5.85;;;;;;;;;;4736082;30;20041;-61
2022/06/10 02:15:41;;;;;;;6.55;5.43;;;;;;;;;;4735815;30;20106;-60
2022/06/10 02:18:13;;;;;;;7.97;6.45;;;;;;;;;;4735994;30;20045;-61
2022/06/10 02:20:49;;;;;;;6.45;5.68;;;;;;;;;;4736111;30;20124;-61
2022/06/10 02:23:20;;;;;;;6.75;5.03;;;;;;;;;;4735880;30;20490;-61
2022/06/10 02:25:52;;;;;;;7.47;5.40;;;;;;;;;;4735886;30;20148;-60
2022/06/10 02:28:29;;;;;;;8.30;6.13;;;;;;;;;;4735563;30;20080;-61
2022/06/10 02:31:05;;;;;;;7.22;5.72;;;;;;;;;;4735406;30;20415;-60
2022/06/10 02:33:36;;;;;;;5.45;4.85;;;;;;;;;;4735737;30;20773;-59
2022/06/10 02:36:30;;;;;;;7.78;6.32;;;;;;;;;;4735815;30;20315;-61
2022/06/10 02:39:06;;;;;;;7.60;6.30;;;;;;;;;;4735651;30;20052;-60
2022/06/10 02:41:51;;;;;;;6.75;5.32;;;;;;;;;;4735255;30;20120;-61
2022/06/10 02:44:50;;;;;;;6.25;5.32;;;;;;;;;;4735418;30;20052;-60
2022/06/10 02:47:33;;;;;;;6.60;5.03;;;;;;;;;;4735295;30;20409;-60
2022/06/10 02:50:01;;;;;;;;;;;;;;;;;;4735099;30;20053;-60
2022/06/10 02:52:33;;;;;;;6.03;5.15;;;;;;;;;;4735324;30;19930;-61
2022/06/10 02:55:01;;;;;;;5.68;4.60;;;;;;;;;;4735055;30;20064;-61
2022/06/10 03:03:15;;;;;;;6.47;4.65;;;;;;;;;;4717300;30;20103;-60
2022/06/10 03:06:00;;;;;;;8.07;5.57;;;;;;;;;;4717815;30;20049;-60
2022/06/10 03:08:56;;;;;;;11.13;7.43;;;;;;;;;;4717598;30;20053;-60
2022/06/10 03:11:38;;;;;;;6.03;4.72;;;;;;;;;;4697485;30;20080;-60
2022/06/10 03:14:13;;;;;;;7.07;5.38;;;;;;;;;;4717464;30;20128;-60
2022/06/10 03:16:49;;;;;;;7.40;4.75;;;;;;;;;;4717688;30;20042;-61
2022/06/10 03:19:47;;;;;;;9.50;5.30;;;;;;;;;;4717167;30;20057;-60
2022/06/10 03:22:36;;;;;;;6.22;4.40;;;;;;;;;;4698894;30;20057;-60
2022/06/10 03:25:22;;;;;;;7.18;4.70;;;;;;;;;;4717327;30;20104;-61
2022/06/10 03:28:08;;;;;;;6.70;4.60;;;;;;;;;;4717452;30;20453;-62
2022/06/10 03:30:49;;;;;;;7.63;5.40;;;;;;;;;;4717152;30;20067;-61
2022/06/10 03:33:25;;;;;;;5.75;5.07;;;;;;;;;;4717021;30;20517;-60
2022/06/10 03:36:07;;;;;;;7.38;5.07;;;;;;;;;;4715998;30;20117;-58
2022/06/10 03:38:40;;;;;;;26.55;16.00;;;;;;;;;;4717133;30;20245;-59
2022/06/10 03:41:17;;;;;;;;;;;;;;;;;;4717570;30;20116;-61
2022/06/10 03:43:45;;;;;;;6.38;5.07;;;;;;;;;;4717299;30;20025;-59
2022/06/10 03:46:13;;;;;;;8.68;5.53;;;;;;;;;;4717158;30;20120;-61
2022/06/10 03:48:43;;;;;;;5.72;4.63;;;;;;;;;;4717176;30;20076;-60
2022/06/10 03:51:13;;;;;;;5.63;4.88;;;;;;;;;;4716088;30;20053;-62
2022/06/10 03:53:40;;;;;;;6.60;4.90;;;;;;;;;;4717121;30;20049;-60
2022/06/10 03:56:09;;;;;;;5.68;4.72;;;;;;;;;;4716816;30;20053;-60
2022/06/10 03:58:38;;;;;;;6.13;5.20;;;;;;;;;;4724509;30;20129;-60
2022/06/10 04:01:08;;;;;;;7.57;5.53;;;;;;;;;;4733910;30;20529;-60
2022/06/10 04:03:35;;;;;;;5.78;4.97;;;;;;;;;;4734097;30;20065;-61
2022/06/10 04:06:05;;;;;;;7.60;5.15;;;;;;;;;;4734208;30;20502;-60
2022/06/10 04:08:52;;;;;;;6.30;4.13;;;;;;;;;;4734185;30;20588;-60
2022/06/10 04:11:20;;;;;;;7.00;4.25;;;;;;;;;;4747376;30;20127;-61
2022/06/10 04:13:47;;;;;;;6.28;4.97;;;;;;;;;;4734214;30;20048;-61
2022/06/10 04:16:15;;;;;;;5.28;4.20;;;;;;;;;;4733021;30;20530;-61
2022/06/10 04:18:42;;;;;;;5.60;4.57;;;;;;;;;;4734176;30;20052;-61
2022/06/10 04:21:09;;;;;;;5.15;4.10;;;;;;;;;;4734138;30;20045;-60
2022/06/10 04:23:37;;;;;;;5.38;3.80;;;;;;;;;;4733864;30;20052;-59
2022/06/10 04:26:07;;;;;;;30.25;16.33;;;;;;;;;;4747074;30;20141;-59
2022/06/10 04:28:34;;;;;;;6.80;5.07;;;;;;;;;;4733987;30;20052;-61
2022/06/10 04:31:01;;;;;;;6.85;3.95;;;;;;;;;;4734047;30;20044;-61
2022/06/10 04:33:31;;;;;;;5.93;4.13;;;;;;;;;;4733874;30;20049;-62
2022/06/10 04:35:59;;;;;;;9.23;3.83;;;;;;;;;;4732518;30;20437;-60
2022/06/10 04:38:26;;;;;;;4.55;3.90;;;;;;;;;;4733893;30;20051;-61
2022/06/10 04:40:53;;;;;;;5.03;3.47;;;;;;;;;;4733849;30;20052;-60
2022/06/10 04:43:22;;;;;;;3.70;3.00;;;;;;;;;;4733863;30;20084;-61
2022/06/10 04:45:53;;;;;;;4.97;3.13;;;;;;;;;;4747262;30;20571;-61
2022/06/10 04:48:21;;;;;;;4.47;3.17;;;;;;;;;;4733736;30;20048;-61
2022/06/10 04:50:48;;;;;;;4.85;3.05;;;;;;;;;;4733653;30;20056;-61
2022/06/10 04:53:16;;;;;;;3.90;2.80;;;;;;;;;;4733921;30;20383;-61
2022/06/10 04:55:43;;;;;;;93.07;54.80;;;;;;;;;;4732845;30;20615;-61
2022/06/10 04:58:12;;;;;;;8.23;5.28;;;;;;;;;;4733733;30;20052;-61
2022/06/10 05:00:42;;;;;;;4.30;2.70;;;;;;;;;;4733667;30;20049;-61
2022/06/10 05:03:10;;;;;;;4.00;2.67;;;;;;;;;;4733570;30;20041;-60
2022/06/10 05:05:38;;;;;;;3.17;2.42;;;;;;;;;;4733551;30;20049;-60
2022/06/10 05:08:06;;;;;;;3.60;1.98;;;;;;;;;;4733713;30;20453;-61
2022/06/10 05:10:34;;;;;;;2.50;2.10;;;;;;;;;;4733613;30;20106;-61
2022/06/10 05:13:02;;;;;;;5.65;2.47;;;;;;;;;;4733552;30;20049;-60
2022/06/10 05:15:29;;;;;;;4.28;2.53;;;;;;;;;;4736932;30;20048;-60
2022/06/10 05:17:58;;;;;;;4.13;2.05;;;;;;;;;;4736894;30;20045;-61
2022/06/10 05:20:29;;;;;;;3.60;2.25;;;;;;;;;;4736962;30;20100;-61
2022/06/10 05:22:56;;;;;;;3.72;2.22;;;;;;;;;;4737005;30;20049;-60
2022/06/10 05:25:24;;;;;;;9.73;6.00;;;;;;;;;;4736860;30;20376;-58
2022/06/10 05:27:51;;;;;;;5.20;3.08;;;;;;;;;;4736901;30;20107;-60
2022/06/10 05:30:23;;;;;;;3.97;2.28;;;;;;;;;;4736573;30;20087;-61
2022/06/10 05:32:51;;;;;;;3.42;2.00;;;;;;;;;;4736770;30;20502;-60
2022/06/10 05:35:19;;;;;;;3.83;1.92;;;;;;;;;;4736570;30;20045;-60
2022/06/10 05:37:47;;;;;;;4.13;2.03;;;;;;;;;;4736867;30;20410;-60
2022/06/10 05:40:21;;;;;;;2.92;1.63;;;;;;;;;;4735856;30;20044;-60
2022/06/10 05:42:49;;;;;;;4.60;1.88;;;;;;;;;;4734709;30;20048;-60
2022/06/10 05:45:18;;;;;;;4.90;1.98;;;;;;;;;;4734666;30;20161;-60
2022/06/10 05:47:50;;;;;;;2.63;1.70;;;;;;;;;;4734918;30;20123;-60
2022/06/10 05:50:25;;;;;;;2.33;1.40;;;;;;;;;;4734629;30;20687;-60
2022/06/10 05:52:52;;;;;;;3.22;1.75;;;;;;;;;;4734562;30;20673;-60
2022/06/10 05:55:21;;;;;;;5.50;1.90;;;;;;;;;;4734404;30;20049;-60
2022/06/10 05:57:50;;;;;;;3.55;1.90;;;;;;;;;;4736149;30;20406;-60
2022/06/10 06:00:23;;;;;;;6.75;2.00;;;;;;;;;;4736570;30;20045;-60
2022/06/10 06:02:50;;;;;;;4.27;2.10;;;;;;;;;;4736207;30;20052;-60
2022/06/10 06:05:20;;;;;;;3.67;1.80;;;;;;;;;;4736287;30;20295;-60
2022/06/10 06:07:49;;;;;;;2.97;1.80;;;;;;;;;;4736365;30;20045;-60
2022/06/10 06:10:20;;;;;;;2.78;1.48;;;;;;;;;;4736032;30;20049;-59
2022/06/10 06:12:48;;;;;;;2.55;1.30;;;;;;;;;;4736311;30;20053;-59
2022/06/10 06:15:15;;;;;;;2.83;1.63;;;;;;;;;;4736212;30;20052;-60
2022/06/10 06:17:43;;;;;;;3.85;1.58;;;;;;;;;;4736318;30;20049;-61
2022/06/10 06:20:14;;;;;;;3.70;1.48;;;;;;;;;;4735984;30;20044;-60
2022/06/10 06:22:41;;;;;;;2.70;1.27;;;;;;;;;;4735722;30;20048;-60
2022/06/10 06:25:17;;;;;;;4.97;1.73;;;;;;;;;;4734403;30;20917;-60
2022/06/10 06:27:48;;;;;;;3.90;1.70;;;;;;;;;;4736229;30;20106;-60
2022/06/10 06:30:19;;;;;;;3.97;1.85;;;;;;;;;;4736179;30;20055;-60
2022/06/10 06:32:47;;;;;;;2.78;1.45;;;;;;;;;;4735898;30;20076;-58
2022/06/10 06:35:15;;;;;;;4.15;1.52;;;;;;;;;;4735939;30;20045;-63
2022/06/10 06:37:43;;;;;;;2.17;1.35;;;;;;;;;;4735735;30;20053;-60
2022/06/10 06:40:11;;;;;;;2.10;1.38;;;;;;;;;;4735725;30;20044;-60
2022/06/10 06:42:39;;;;;;;5.30;1.58;;;;;;;;;;4735553;30;20052;-60
2022/06/10 06:45:09;;;;;;;5.72;1.10;;;;;;;;;;4734427;30;20409;-60
2022/06/10 06:47:56;;;;;;;2.15;1.10;;;;;;;;;;4735686;30;20048;-60
2022/06/10 06:50:28;;;;;;;1.85;1.25;;;;;;;;;;4735836;30;20044;-60
2022/06/10 06:52:55;;;;;;;2.13;0.90;;;;;;;;;;4735448;30;20437;-59
2022/06/10 06:55:31;;;;;;;2.75;1.00;;;;;;;;;;4735343;30;20049;-60
2022/06/10 06:57:59;;;;;;;3.17;1.00;;;;;;;;;;4735214;30;20039;-60
2022/06/10 07:00:27;;;;;;;3.60;1.13;;;;;;;;;;4735474;30;20052;-59
2022/06/10 07:02:55;;;;;;;4.10;1.08;;;;;;;;;;4735483;30;20405;-60
2022/06/10 07:05:25;;;;;;;2.35;1.00;;;;;;;;;;4735313;30;20056;-60
2022/06/10 07:07:53;;;;;;;3.53;1.20;;;;;;;;;;4735140;30;20056;-60
2022/06/10 07:10:21;;;;;;;2.38;1.00;;;;;;;;;;4735136;30;20131;-59
2022/06/10 07:12:49;;;;;;;1.95;1.10;;;;;;;;;;4735160;30;20044;-59
2022/06/10 07:15:18;;;;;;;1.92;1.10;;;;;;;;;;4735120;30;20044;-59
2022/06/10 07:17:45;;;;;;;3.25;1.20;;;;;;;;;;4735355;30;20045;-59
2022/06/10 07:20:23;;;;;;;3.25;1.13;;;;;;;;;;4735121;30;20508;-60
2022/06/10 07:22:51;;;;;;;2.42;0.90;;;;;;;;;;4734784;30;20114;-60
2022/06/10 07:25:22;;;;;;;2.95;0.90;;;;;;;;;;4734843;30;20053;-60
2022/06/10 07:27:52;;;;;;;2.10;1.15;;;;;;;;;;4735061;30;20379;-60
2022/06/10 07:30:21;;;;;;;1.42;0.77;;;;;;;;;;4734836;30;20053;-60
2022/06/10 07:32:48;;;;;;;1.67;1.15;;;;;;;;;;4734869;30;20426;-60
2022/06/10 07:35:18;;;;;;;4.30;0.90;;;;;;;;;;4734858;30;20072;-60
2022/06/10 07:37:46;;;;;;;2.40;1.20;;;;;;;;;;4734264;30;20044;-60
2022/06/10 07:43:27;;;;;;;1.73;1.00;;;;;;;;;;4734740;30;20048;-60
2022/06/10 07:45:54;;;;;;;2.25;1.33;;;;;;;;;;4734430;30;20131;-60
2022/06/10 07:48:22;;;;;;;4.10;0.98;;;;;;;;;;4734826;30;20052;-60
2022/06/10 07:50:50;;;;;;;1.73;0.80;;;;;;;;;;4734609;30;20560;-60
2022/06/10 07:53:18;;;;;;;3.65;1.20;;;;;;;;;;4734614;30;20041;-59
2022/06/10 07:55:46;;;;;;;2.63;1.30;;;;;;;;;;4733685;30;20048;-60
2022/06/10 07:58:16;;;;;;;2.25;1.08;;;;;;;;;;4734501;30;20084;-60
2022/06/10 08:00:44;;;;;;;2.00;0.80;;;;;;;;;;4735053;30;20410;-61
2022/06/10 08:03:12;;;;;;;1.50;0.80;;;;;;;;;;4734541;30;20044;-60
2022/06/10 08:05:41;;;;;;;2.92;1.00;;;;;;;;;;4734637;30;20088;-60
2022/06/10 08:08:15;;;;;;;2.75;0.77;;;;;;;;;;4734383;30;20473;-60
2022/06/10 08:10:43;;;;;;;1.92;0.93;;;;;;;;;;4734442;30;20048;-60
2022/06/10 08:13:10;;;;;;;2.08;0.70;;;;;;;;;;4734293;30;20080;-61
2022/06/10 08:15:39;;;;;;;1.52;0.77;;;;;;;;;;4734234;30;20087;-60
2022/06/10 08:18:06;;;;;;;2.38;1.10;;;;;;;;;;4734325;30;20051;-60
2022/06/10 08:23:25;;;;;;;2.67;0.90;;;;;;;;;;4733970;30;20051;-60
2022/06/10 08:25:54;;;;;;;2.00;0.75;;;;;;;;;;4734102;30;20053;-60
2022/06/10 08:28:23;;;;;;;1.88;0.98;;;;;;;;;;4734131;30;20045;-60
2022/06/10 08:30:50;;;;;;;1.77;0.88;;;;;;;;;;4733978;30;20079;-60
2022/06/10 08:33:17;;;;;;;2.72;0.95;;;;;;;;;;4734067;30;20049;-60
2022/06/10 08:35:46;;;;;;;4.72;1.02;;;;;;;;;;4734124;30;20049;-60
2022/06/10 08:38:15;;;;;;;2.10;1.00;;;;;;;;;;4734216;30;20579;-60
2022/06/10 08:40:58;;;;;;;2.00;0.95;;;;;;;;;;4734196;30;20390;-60
2022/06/10 08:43:47;;;;;;;1.92;0.88;;;;;;;;;;4733734;30;20474;-60
2022/06/10 08:46:53;;;;;;;18.65;4.05;;;;;;;;;;4733894;30;20045;-60
2022/06/10 08:49:45;;;;;;;4.70;2.20;;;;;;;;;;4737192;30;20052;-60
2022/06/10 08:52:24;;;;;;;2.03;0.90;;;;;;;;;;4737697;30;20103;-60
2022/06/10 08:55:08;;;;;;;2.75;1.15;;;;;;;;;;4737476;30;20110;-60
2022/06/10 08:57:44;;;;;;;2.85;1.05;;;;;;;;;;4737692;30;20467;-60
2022/06/10 09:00:15;;;;;;;4.22;1.10;;;;;;;;;;4737620;30;20131;-61
2022/06/10 09:03:19;;;;;;;2.47;1.10;;;;;;;;;;4737546;30;20052;-61
2022/06/10 09:05:52;;;;;;;10.13;1.83;;;;;;;;;;4731433;30;20139;-60
2022/06/10 09:08:25;;;;;;;3.20;1.20;;;;;;;;;;4737292;30;20048;-60
2022/06/10 09:10:55;;;;;;;;;;;;;;;;;;4737529;30;20106;-60
2022/06/10 09:13:45;;;;;;;1.98;1.17;;;;;;;;;;4737064;30;19969;-60
2022/06/10 09:16:33;;;;;;;3.17;1.35;;;;;;;;;;4737465;30;20044;-62
2022/06/10 09:19:19;;;;;;;2.28;1.10;;;;;;;;;;4737137;30;20052;-62
2022/06/10 09:22:09;;;;;;;2.42;1.10;;;;;;;;;;4736976;30;20422;-61
2022/06/10 09:25:05;;;;;;;1.58;0.70;;;;;;;;;;4737073;30;20049;-61
2022/06/10 09:27:44;;;;;;;1.67;1.00;;;;;;;;;;4736996;30;20055;-60
2022/06/10 09:30:19;;;;;;;3.28;1.00;;;;;;;;;;4736671;30;20097;-60
2022/06/10 09:32:50;;;;;;;2.67;0.90;;;;;;;;;;4735822;30;20079;-60
2022/06/10 09:35:43;;;;;;;1.58;0.93;;;;;;;;;;4736892;30;20492;-60
2022/06/10 09:38:14;;;;;;;1.90;0.80;;;;;;;;;;4736843;30;20095;-60
2022/06/10 09:41:07;;;;;;;1.88;0.93;;;;;;;;;;4736800;30;20052;-63
2022/06/10 09:43:43;;;;;;;3.88;1.25;;;;;;;;;;4736611;30;20051;-58
2022/06/10 09:46:10;;;;;;;2.10;0.70;;;;;;;;;;4736651;30;20502;-60
2022/06/10 09:48:48;;;;;;;1.75;0.80;;;;;;;;;;4736544;30;20410;-60
2022/06/10 09:51:33;;;;;;;2.88;0.93;;;;;;;;;;4736782;30;20053;-60
2022/06/10 09:54:11;;;;;;;1.55;0.70;;;;;;;;;;4736556;30;20126;-62
2022/06/10 09:56:45;;;;;;;3.47;1.65;;;;;;;;;;4736502;30;20072;-60
2022/06/10 09:59:35;;;;;;;3.22;1.30;;;;;;;;;;4734656;30;20057;-60
2022/06/10 10:02:25;;;;;;;2.50;0.80;;;;;;;;;;4736387;30;20148;-60
2022/06/10 10:05:02;;;;;;;5.88;1.10;;;;;;;;;;4749696;30;20060;-60
2022/06/10 10:07:45;;;;;;;0.98;0.70;;;;;;;;;;4736328;30;20048;-61
2022/06/10 10:10:37;;;;;;;2.30;1.13;;;;;;;;;;4736479;30;20055;-60
2022/06/10 10:13:40;;;;;;;1.85;0.93;;;;;;;;;;4736364;30;20107;-60
2022/06/10 10:16:26;;;;;;;2.25;1.00;;;;;;;;;;4736109;30;20052;-60
2022/06/10 10:19:22;;;;;;;2.53;0.93;;;;;;;;;;4736133;30;20052;-60
2022/06/10 10:22:16;;;;;;;2.00;0.93;;;;;;;;;;4736171;30;20141;-60
2022/06/10 10:24:45;;;;;;;1.60;0.82;;;;;;;;;;4736253;30;20095;-60
2022/06/10 10:27:32;;;;;;;2.40;1.00;;;;;;;;;;4736139;30;20045;-60
2022/06/10 10:30:17;;;;;;;2.75;0.85;;;;;;;;;;4735851;30;20053;-61
2022/06/10 10:32:52;;;;;;;2.35;0.80;;;;;;;;;;4736111;30;20514;-61
2022/06/10 10:35:27;;;;;;;2.05;0.80;;;;;;;;;;4735635;30;20049;-60
2022/06/10 10:38:01;;;;;;;2.30;1.00;;;;;;;;;;4735978;30;20106;-61
2022/06/10 10:40:36;;;;;;;1.73;0.90;;;;;;;;;;4735768;30;20056;-61
2022/06/10 10:43:11;;;;;;;1.27;0.70;;;;;;;;;;4735644;30;20041;-61
2022/06/10 10:45:50;;;;;;;1.98;0.82;;;;;;;;;;4735679;30;20053;-61
2022/06/10 10:48:24;;;;;;;2.85;0.73;;;;;;;;;;4735839;30;20075;-61
2022/06/10 10:50:59;;;;;;;3.35;0.80;;;;;;;;;;4735392;30;20048;-61
2022/06/10 10:53:38;;;;;;;3.72;1.13;;;;;;;;;;4735325;30;20118;-61
2022/06/10 10:56:08;;;;;;;2.63;0.60;;;;;;;;;;4735524;30;20083;-61
2022/06/10 10:58:52;;;;;;;2.20;0.80;;;;;;;;;;4735513;30;20107;-61
2022/06/10 11:01:51;;;;;;;2.00;0.60;;;;;;;;;;4735340;30;20047;-60
2022/06/10 11:04:32;;;;;;;1.75;0.73;;;;;;;;;;4734285;30;20067;-60
2022/06/10 11:07:13;;;;;;;2.50;0.70;;;;;;;;;;4735250;30;20494;-61
2022/06/10 11:10:28;;;;;;;3.42;0.90;;;;;;;;;;4735177;30;20056;-60
2022/06/10 11:13:01;;;;;;;1.40;0.73;;;;;;;;;;4734604;30;20041;-61
2022/06/10 11:15:31;;;;;;;4.95;0.70;;;;;;;;;;4735154;30;20452;-63
2022/06/10 11:17:59;;;;;;;1.77;0.80;;;;;;;;;;4735104;30;20502;-60
2022/06/10 11:20:33;;;;;;;2.15;0.90;;;;;;;;;;4735320;30;20044;-60
2022/06/10 11:23:22;;;;;;;4.60;0.80;;;;;;;;;;4734917;30;20120;-60
2022/06/10 11:26:05;;;;;;;2.45;0.70;;;;;;;;;;4735067;30;20555;-60
2022/06/10 11:28:37;;;;;;;1.90;0.68;;;;;;;;;;4734857;30;20045;-60
2022/06/10 11:31:18;;;;;;;2.08;0.70;;;;;;;;;;4734776;30;20092;-60
2022/06/10 11:33:49;;;;;;;6.80;0.90;;;;;;;;;;4735057;30;20067;-60
2022/06/10 11:36:35;;;;;;;2.15;0.80;;;;;;;;;;4734972;30;20045;-60
2022/06/10 11:39:19;;;;;;;1.98;0.80;;;;;;;;;;4734910;30;20044;-60
2022/06/10 11:42:12;;;;;;;3.33;0.82;;;;;;;;;;4735045;30;20040;-60
2022/06/10 11:44:48;;;;;;;1.35;0.80;;;;;;;;;;4734598;30;20049;-60
2022/06/10 11:47:35;;;;;;;2.38;0.80;;;;;;;;;;4734807;30;20045;-60
2022/06/10 11:50:02;;;;;;;1.60;0.77;;;;;;;;;;4734645;30;20076;-60
2022/06/10 11:52:51;;;;;;;1.90;0.95;;;;;;;;;;4734555;30;20128;-61
2022/06/10 11:55:24;;;;;;;4.07;0.70;;;;;;;;;;4734637;30;20482;-60
2022/06/10 12:01:03;;;;;;;1.63;0.95;;;;;;;;;;4734408;30;20445;-61
2022/06/10 12:03:41;;;;;;;0.85;0.60;;;;;;;;;;4734432;30;20488;-61
2022/06/10 12:06:13;;;;;;;0.60;0.40;;;;;;;;;;4734292;30;20041;-61
2022/06/10 12:08:49;;;;;;;1.85;0.80;;;;;;;;;;4734140;30;20124;-60
2022/06/10 12:11:35;;;;;;;1.23;0.60;;;;;;;;;;4734402;30;20102;-61
2022/06/10 12:14:20;;;;;;;2.85;0.80;;;;;;;;;;4734298;30;20129;-61
2022/06/10 12:16:58;;;;;;;2.03;0.77;;;;;;;;;;4733744;30;20521;-60
2022/06/10 12:19:33;;;;;;;3.25;0.68;;;;;;;;;;4734127;30;20069;-60
2022/06/10 12:22:01;;;;;;;7.07;3.45;;;;;;;;;;4733969;30;20048;-61
2022/06/10 12:24:28;;;;;;;2.22;0.80;;;;;;;;;;4733879;30;20056;-61
2022/06/10 12:27:00;;;;;;;1.63;0.73;;;;;;;;;;4733995;30;20055;-60
2022/06/10 12:29:31;;;;;;;0.95;0.47;;;;;;;;;;4733880;30;20049;-60
2022/06/10 12:32:21;;;;;;;1.88;0.70;;;;;;;;;;4733879;30;20486;-61
2022/06/10 12:35:11;;;;;;;1.30;0.65;;;;;;;;;;4747150;30;20049;-60
2022/06/10 12:37:45;;;;;;;1.27;0.60;;;;;;;;;;4733644;30;20063;-61
2022/06/10 12:40:40;;;;;;;4.75;0.90;;;;;;;;;;4733982;30;20049;-62
2022/06/10 12:43:13;;;;;;;6.53;0.70;;;;;;;;;;4734016;30;20162;-61
2022/06/10 12:45:45;;;;;;;3.15;0.75;;;;;;;;;;4733967;30;20064;-61
2022/06/10 12:48:47;;;;;;;1.50;0.60;;;;;;;;;;4733746;30;20048;-61
2022/06/10 12:51:44;;;;;;;1.58;0.80;;;;;;;;;;4733938;30;20048;-61
2022/06/10 12:54:38;;;;;;;11.18;1.15;;;;;;;;;;4733789;30;20132;-61
2022/06/10 12:57:27;;;;;;;2.42;0.60;;;;;;;;;;4733918;30;20048;-61
2022/06/10 13:00:17;;;;;;;0.95;0.63;;;;;;;;;;4733622;30;20047;-61
2022/06/10 13:02:51;;;;;;;2.17;0.57;;;;;;;;;;4733805;30;20053;-61
2022/06/10 13:05:26;;;;;;;2.88;0.68;;;;;;;;;;4733432;30;20057;-58
2022/06/10 13:07:55;;;;;;;2.47;0.70;;;;;;;;;;4733739;30;20150;-62
2022/06/10 13:10:28;;;;;;;3.28;0.88;;;;;;;;;;4733741;30;20080;-63
2022/06/10 13:13:21;;;;;;;1.67;0.80;;;;;;;;;;4733620;30;20057;-61
2022/06/10 13:15:49;;;;;;;;;;;;;;;;;;4733931;30;20045;-61
2022/06/10 13:18:17;;;;;;;42.13;24.05;;;;;;;;;;4733640;30;19933;-62
2022/06/10 13:20:47;;;;;;;4.75;2.63;;;;;;;;;;4733662;30;20056;-62
2022/06/10 13:23:26;;;;;;;2.95;0.80;;;;;;;;;;4733860;30;20045;-63
2022/06/10 13:26:03;;;;;;;1.35;0.80;;;;;;;;;;4732565;30;20106;-62
2022/06/10 13:28:37;;;;;;;3.80;0.85;;;;;;;;;;4733361;30;20131;-62
2022/06/10 13:31:20;;;;;;;1.77;0.65;;;;;;;;;;4733454;30;20041;-63
2022/06/10 13:34:06;;;;;;;0.93;0.60;;;;;;;;;;4733544;30;20049;-63
2022/06/10 13:36:46;;;;;;;2.25;0.70;;;;;;;;;;4736747;30;20041;-63
2022/06/10 13:39:25;;;;;;;1.13;0.60;;;;;;;;;;4736840;30;20123;-63
2022/06/10 13:41:53;;;;;;;4.55;0.68;;;;;;;;;;4736621;30;20071;-62
2022/06/10 13:44:26;;;;;;;2.17;0.70;;;;;;;;;;4736586;30;20075;-62
2022/06/10 13:46:54;;;;;;;;;;;;;;;;;;4736968;30;20045;-63
2022/06/10 13:49:46;;;;;;;1.33;0.70;;;;;;;;;;4736660;30;19926;-62
2022/06/10 13:52:25;;;;;;;1.15;0.70;;;;;;;;;;4736299;30;20052;-64
2022/06/10 13:54:56;;;;;;;38.55;24.67;;;;;;;;;;4735355;30;20060;-62
2022/06/10 13:57:31;;;;;;;6.00;3.55;;;;;;;;;;4736473;30;20412;-62
2022/06/10 14:00:04;;;;;;;0.90;0.60;;;;;;;;;;4718855;30;20414;-62
2022/06/10 14:02:33;;;;;;;1.20;0.55;;;;;;;;;;4719073;30;20049;-61
2022/06/10 14:05:01;;;;;;;7.53;4.32;;;;;;;;;;4718610;30;20568;-62
2022/06/10 14:07:35;;;;;;;2.25;0.70;;;;;;;;;;4718548;30;20510;-62
2022/06/10 14:10:15;;;;;;;0.80;0.50;;;;;;;;;;4718780;30;20053;-61
2022/06/10 14:13:04;;;;;;;9.85;1.40;;;;;;;;;;4717698;30;20123;-62
2022/06/10 14:15:37;;;;;;;3.60;0.90;;;;;;;;;;4718311;30;20045;-62
2022/06/10 14:18:17;;;;;;;2.22;0.80;;;;;;;;;;4718623;30;20052;-62
2022/06/10 14:20:46;;;;;;;4.43;0.77;;;;;;;;;;4718390;30;20056;-61
2022/06/10 14:23:29;;;;;;;2.72;0.98;;;;;;;;;;4718559;30;20064;-61
2022/06/10 14:26:03;;;;;;;4.60;0.90;;;;;;;;;;4718213;30;20079;-61
2022/06/10 14:28:30;;;;;;;1.75;1.00;;;;;;;;;;4718684;30;20051;-61
2022/06/10 14:31:00;;;;;;;7.50;1.00;;;;;;;;;;4717846;30;20041;-61
2022/06/10 14:33:30;;;;;;;3.10;0.68;;;;;;;;;;4718167;30;20132;-62
2022/06/10 14:36:19;;;;;;;4.50;1.75;;;;;;;;;;4717083;30;20053;-61
2022/06/10 14:39:13;;;;;;;2.40;0.50;;;;;;;;;;4716510;30;20041;-62
2022/06/10 14:42:00;;;;;;;1.55;0.65;;;;;;;;;;4716139;30;20060;-62
2022/06/10 14:44:30;;;;;;;3.13;0.63;;;;;;;;;;4716135;30;20056;-62
2022/06/10 14:47:10;;;;;;;2.28;0.80;;;;;;;;;;4716000;30;20057;-61
2022/06/10 14:49:51;;;;;;;2.80;1.30;;;;;;;;;;4716327;30;20068;-62
2022/06/10 14:52:28;;;;;;;2.97;0.90;;;;;;;;;;4717392;30;20092;-62
2022/06/10 14:55:00;;;;;;;2.28;0.80;;;;;;;;;;4717850;30;20103;-62
2022/06/10 14:57:30;;;;;;;1.75;0.68;;;;;;;;;;4717688;30;20157;-62
2022/06/10 14:59:58;;;;;;;1.45;0.68;;;;;;;;;;4735314;30;20071;-63
2022/06/10 15:02:25;;;;;;;2.70;0.52;;;;;;;;;;4735125;30;20044;-62
2022/06/10 15:07:39;;;;;;;2.40;0.50;;;;;;;;;;4735065;30;20110;-63
2022/06/10 15:10:13;;;;;;;3.50;0.73;;;;;;;;;;4735067;30;20044;-62
2022/06/10 15:12:41;;;;;;;2.95;0.80;;;;;;;;;;4734985;30;20049;-62
2022/06/10 15:15:15;;;;;;;2.92;0.65;;;;;;;;;;4735122;30;20061;-62
2022/06/10 15:17:48;;;;;;;2.50;0.70;;;;;;;;;;4735120;30;20048;-62
2022/06/10 15:20:15;;;;;;;1.02;0.50;;;;;;;;;;4734929;30;20417;-63
2022/06/10 15:22:50;;;;;;;1.13;0.60;;;;;;;;;;4734895;30;20045;-62
2022/06/10 15:25:19;;;;;;;;;;;;;;;;;;4734981;30;20099;-63
2022/06/10 15:27:47;;;;;;;1.02;0.50;;;;;;;;;;4734911;30;19976;-63
2022/06/10 15:30:16;;;;;;;1.85;0.60;;;;;;;;;;4734924;30;20576;-62
2022/06/10 15:32:44;;;;;;;2.80;0.57;;;;;;;;;;4734655;30;20102;-63
2022/06/10 15:41:00;;;;;;;1.35;0.70;;;;;;;;;;4734508;30;20405;-63
2022/06/10 15:43:28;;;;;;;0.57;0.50;;;;;;;;;;4734540;30;20513;-63
2022/06/10 15:45:55;;;;;;;3.15;0.52;;;;;;;;;;4734767;30;20056;-60
2022/06/10 15:48:25;;;;;;;1.65;0.60;;;;;;;;;;4734632;30;20564;-63
2022/06/10 15:50:56;;;;;;;1.23;0.50;;;;;;;;;;4734808;30;20476;-63
2022/06/10 15:53:27;;;;;;;0.88;0.57;;;;;;;;;;4734397;30;20262;-63
2022/06/10 15:58:40;;;;;;;1.20;0.70;;;;;;;;;;4734030;30;20127;-63